sensor_id;sensor_type;location;lat;lon;timestamp;pressure;altitude;pressure_sealevel;temperature;humidity
54270;BME280;40181;51.560;13.000;2022-11-13T00:01:46;102187.06;;;5.38;89.10
54270;BME280;40181;51.560;13.000;2022-11-13T00:04:16;102179.38;;;5.55;89.45
54270;BME280;40181;51.560;13.000;2022-11-13T00:06:48;102177.47;;;5.52;89.38
54270;BME280;40181;51.560;13.000;2022-11-13T00:09:18;102177.25;;;5.63;88.96
54270;BME280;40181;51.560;13.000;2022-11-13T00:11:47;102177.41;;;5.66;89.46
54270;BME280;40181;51.560;13.000;2022-11-13T00:14:16;102173.63;;;5.61;90.55
54270;BME280;40181;51.560;13.000;2022-11-13T00:16:46;102164.28;;;5.64;90.59
54270;BME280;40181;51.560;13.000;2022-11-13T00:19:15;102157.09;;;5.75;90.79
54270;BME280;40181;51.560;13.000;2022-11-13T00:21:44;102164.81;;;5.89;90.39
54270;BME280;40181;51.560;13.000;2022-11-13T00:24:17;102161.22;;;5.72;90.92
54270;BME280;40181;51.560;13.000;2022-11-13T00:26:46;102147.72;;;5.49;92.39
54270;BME280;40181;51.560;13.000;2022-11-13T00:29:15;102145.84;;;5.76;91.72
54270;BME280;40181;51.560;13.000;2022-11-13T00:31:45;102145.75;;;5.60;92.21
54270;BME280;40181;51.560;13.000;2022-11-13T00:34:14;102143.78;;;5.56;92.68
54270;BME280;40181;51.560;13.000;2022-11-13T00:36:44;102142.44;;;5.47;93.10
54270;BME280;40181;51.560;13.000;2022-11-13T00:39:17;102142.00;;;5.54;92.57
54270;BME280;40181;51.560;13.000;2022-11-13T00:41:46;102154.75;;;5.65;92.01
54270;BME280;40181;51.560;13.000;2022-11-13T00:44:15;102147.28;;;5.56;91.87
54270;BME280;40181;51.560;13.000;2022-11-13T00:46:45;102156.34;;;5.48;92.16
54270;BME280;40181;51.560;13.000;2022-11-13T00:49:14;102150.69;;;5.40;92.70
54270;BME280;40181;51.560;13.000;2022-11-13T00:51:43;102156.28;;;5.61;92.06
54270;BME280;40181;51.560;13.000;2022-11-13T00:54:15;102166.75;;;5.48;92.23
54270;BME280;40181;51.560;13.000;2022-11-13T00:56:45;102152.38;;;5.39;93.52
54270;BME280;40181;51.560;13.000;2022-11-13T00:59:14;102153.56;;;5.45;93.75
54270;BME280;40181;51.560;13.000;2022-11-13T01:01:45;102162.06;;;5.27;95.14
54270;BME280;40181;51.560;13.000;2022-11-13T01:04:14;102148.44;;;5.31;95.92
54270;BME280;40181;51.560;13.000;2022-11-13T01:06:44;102143.53;;;5.22;96.33
54270;BME280;40181;51.560;13.000;2022-11-13T01:09:16;102154.06;;;5.24;96.60
54270;BME280;40181;51.560;13.000;2022-11-13T01:11:45;102144.53;;;5.24;95.70
54270;BME280;40181;51.560;13.000;2022-11-13T01:14:15;102155.16;;;4.99;96.70
54270;BME280;40181;51.560;13.000;2022-11-13T01:16:44;102137.91;;;5.01;97.04
54270;BME280;40181;51.560;13.000;2022-11-13T01:19:14;102136.22;;;5.02;96.84
54270;BME280;40181;51.560;13.000;2022-11-13T01:21:44;102146.44;;;4.98;97.38
54270;BME280;40181;51.560;13.000;2022-11-13T01:24:16;102135.38;;;4.74;97.42
54270;BME280;40181;51.560;13.000;2022-11-13T01:26:45;102141.81;;;4.66;98.24
54270;BME280;40181;51.560;13.000;2022-11-13T01:29:15;102135.50;;;4.62;97.84
54270;BME280;40181;51.560;13.000;2022-11-13T01:31:44;102134.00;;;4.66;97.94
54270;BME280;40181;51.560;13.000;2022-11-13T01:34:13;102130.41;;;4.77;98.04
54270;BME280;40181;51.560;13.000;2022-11-13T01:36:43;102127.03;;;4.51;98.21
54270;BME280;40181;51.560;13.000;2022-11-13T01:39:12;102134.22;;;4.55;97.86
54270;BME280;40181;51.560;13.000;2022-11-13T01:41:44;102129.06;;;4.42;98.34
54270;BME280;40181;51.560;13.000;2022-11-13T01:44:15;102140.16;;;4.39;98.71
54270;BME280;40181;51.560;13.000;2022-11-13T01:46:47;102141.34;;;4.58;97.52
54270;BME280;40181;51.560;13.000;2022-11-13T01:49:25;102137.53;;;4.53;97.73
54270;BME280;40181;51.560;13.000;2022-11-13T01:51:58;102125.63;;;4.56;97.18
54270;BME280;40181;51.560;13.000;2022-11-13T01:54:37;102128.13;;;4.55;97.52
54270;BME280;40181;51.560;13.000;2022-11-13T01:57:08;102134.63;;;4.62;97.49
54270;BME280;40181;51.560;13.000;2022-11-13T01:59:40;102148.06;;;4.54;97.52
54270;BME280;40181;51.560;13.000;2022-11-13T02:02:13;102139.84;;;4.48;98.01
54270;BME280;40181;51.560;13.000;2022-11-13T02:04:42;102125.44;;;4.53;97.68
54270;BME280;40181;51.560;13.000;2022-11-13T02:07:14;102136.94;;;4.43;98.66
54270;BME280;40181;51.560;13.000;2022-11-13T02:09:50;102130.06;;;4.44;99.36
54270;BME280;40181;51.560;13.000;2022-11-13T02:12:27;102125.75;;;4.31;98.99
54270;BME280;40181;51.560;13.000;2022-11-13T02:14:58;102127.44;;;4.31;99.43
54270;BME280;40181;51.560;13.000;2022-11-13T02:17:32;102128.94;;;4.40;99.46
54270;BME280;40181;51.560;13.000;2022-11-13T02:20:06;102125.03;;;4.47;99.14
54270;BME280;40181;51.560;13.000;2022-11-13T02:22:42;102134.63;;;4.48;98.78
54270;BME280;40181;51.560;13.000;2022-11-13T02:25:21;102139.75;;;4.47;99.05
54270;BME280;40181;51.560;13.000;2022-11-13T02:27:53;102125.31;;;4.52;99.12
54270;BME280;40181;51.560;13.000;2022-11-13T02:30:26;102133.81;;;4.63;98.91
54270;BME280;40181;51.560;13.000;2022-11-13T02:32:57;102119.72;;;4.46;99.75
54270;BME280;40181;51.560;13.000;2022-11-13T02:35:29;102110.34;;;4.34;100.00
54270;BME280;40181;51.560;13.000;2022-11-13T02:38:02;102109.81;;;4.40;100.00
54270;BME280;40181;51.560;13.000;2022-11-13T02:40:34;102104.09;;;4.46;99.92
54270;BME280;40181;51.560;13.000;2022-11-13T02:43:03;102114.91;;;4.52;100.00
54270;BME280;40181;51.560;13.000;2022-11-13T02:45:33;102123.00;;;4.56;100.00
54270;BME280;40181;51.560;13.000;2022-11-13T02:48:03;102102.88;;;4.67;99.60
54270;BME280;40181;51.560;13.000;2022-11-13T02:50:34;102099.88;;;4.61;100.00
54270;BME280;40181;51.560;13.000;2022-11-13T02:53:04;102090.56;;;4.65;100.00
54270;BME280;40181;51.560;13.000;2022-11-13T02:55:36;102104.72;;;4.55;100.00
54270;BME280;40181;51.560;13.000;2022-11-13T02:58:06;102092.16;;;4.63;100.00
54270;BME280;40181;51.560;13.000;2022-11-13T03:00:35;102088.13;;;4.68;100.00
54270;BME280;40181;51.560;13.000;2022-11-13T03:03:05;102088.88;;;4.65;100.00
54270;BME280;40181;51.560;13.000;2022-11-13T03:05:34;102073.31;;;4.67;100.00
54270;BME280;40181;51.560;13.000;2022-11-13T03:08:05;102064.34;;;4.62;100.00
54270;BME280;40181;51.560;13.000;2022-11-13T03:10:37;102077.31;;;4.75;100.00
54270;BME280;40181;51.560;13.000;2022-11-13T03:13:07;102083.13;;;4.71;100.00
54270;BME280;40181;51.560;13.000;2022-11-13T03:15:36;102066.72;;;4.72;100.00
54270;BME280;40181;51.560;13.000;2022-11-13T03:18:07;102067.84;;;4.62;100.00
54270;BME280;40181;51.560;13.000;2022-11-13T03:20:37;102066.72;;;4.59;100.00
54270;BME280;40181;51.560;13.000;2022-11-13T03:23:09;102057.41;;;4.62;100.00
54270;BME280;40181;51.560;13.000;2022-11-13T03:25:41;102067.09;;;4.78;100.00
54270;BME280;40181;51.560;13.000;2022-11-13T03:28:10;102044.97;;;4.71;100.00
54270;BME280;40181;51.560;13.000;2022-11-13T03:30:40;102046.53;;;4.83;100.00
54270;BME280;40181;51.560;13.000;2022-11-13T03:33:09;102056.88;;;4.96;100.00
54270;BME280;40181;51.560;13.000;2022-11-13T03:35:39;102060.03;;;4.91;100.00
54270;BME280;40181;51.560;13.000;2022-11-13T03:38:09;102062.09;;;4.96;100.00
54270;BME280;40181;51.560;13.000;2022-11-13T03:40:41;102055.66;;;5.05;100.00
54270;BME280;40181;51.560;13.000;2022-11-13T03:43:10;102047.84;;;5.20;100.00
54270;BME280;40181;51.560;13.000;2022-11-13T03:45:40;102050.88;;;5.12;100.00
54270;BME280;40181;51.560;13.000;2022-11-13T03:48:11;102071.81;;;5.14;100.00
54270;BME280;40181;51.560;13.000;2022-11-13T03:50:42;102069.94;;;5.11;100.00
54270;BME280;40181;51.560;13.000;2022-11-13T03:53:12;102045.25;;;5.20;100.00
54270;BME280;40181;51.560;13.000;2022-11-13T03:55:45;102051.63;;;5.25;100.00
54270;BME280;40181;51.560;13.000;2022-11-13T03:58:14;102052.44;;;5.24;100.00
54270;BME280;40181;51.560;13.000;2022-11-13T04:00:45;102059.44;;;5.25;100.00
54270;BME280;40181;51.560;13.000;2022-11-13T04:03:15;102057.56;;;5.22;100.00
54270;BME280;40181;51.560;13.000;2022-11-13T04:05:46;102048.50;;;5.31;100.00
54270;BME280;40181;51.560;13.000;2022-11-13T04:08:18;102047.13;;;5.22;100.00
54270;BME280;40181;51.560;13.000;2022-11-13T04:10:50;102033.19;;;5.22;100.00
54270;BME280;40181;51.560;13.000;2022-11-13T04:13:19;102037.34;;;5.18;100.00
54270;BME280;40181;51.560;13.000;2022-11-13T04:15:49;102029.59;;;5.20;100.00
54270;BME280;40181;51.560;13.000;2022-11-13T04:18:18;102034.09;;;5.22;100.00
54270;BME280;40181;51.560;13.000;2022-11-13T04:20:48;102036.00;;;5.25;100.00
54270;BME280;40181;51.560;13.000;2022-11-13T04:23:17;102023.97;;;5.27;100.00
54270;BME280;40181;51.560;13.000;2022-11-13T04:25:50;102032.16;;;5.18;100.00
54270;BME280;40181;51.560;13.000;2022-11-13T04:28:19;102024.59;;;5.23;100.00
54270;BME280;40181;51.560;13.000;2022-11-13T04:30:48;102031.78;;;5.27;100.00
54270;BME280;40181;51.560;13.000;2022-11-13T04:33:19;102032.41;;;5.23;100.00
54270;BME280;40181;51.560;13.000;2022-11-13T04:35:49;102015.97;;;5.24;100.00
54270;BME280;40181;51.560;13.000;2022-11-13T04:38:19;102007.59;;;5.30;100.00
54270;BME280;40181;51.560;13.000;2022-11-13T04:40:51;102009.50;;;5.32;100.00
54270;BME280;40181;51.560;13.000;2022-11-13T04:43:40;102004.56;;;5.37;100.00
54270;BME280;40181;51.560;13.000;2022-11-13T04:46:07;102006.63;;;5.28;100.00
54270;BME280;40181;51.560;13.000;2022-11-13T04:48:36;102007.31;;;5.40;100.00
54270;BME280;40181;51.560;13.000;2022-11-13T04:51:06;102002.22;;;5.42;100.00
54270;BME280;40181;51.560;13.000;2022-11-13T04:53:35;101996.09;;;5.41;100.00
54270;BME280;40181;51.560;13.000;2022-11-13T04:56:08;101996.19;;;5.43;100.00
54270;BME280;40181;51.560;13.000;2022-11-13T04:58:37;102003.09;;;5.42;100.00
54270;BME280;40181;51.560;13.000;2022-11-13T05:01:06;101992.59;;;5.40;100.00
54270;BME280;40181;51.560;13.000;2022-11-13T05:03:36;102007.06;;;5.35;100.00
54270;BME280;40181;51.560;13.000;2022-11-13T05:06:07;101994.84;;;5.19;100.00
54270;BME280;40181;51.560;13.000;2022-11-13T05:08:37;101999.88;;;5.31;100.00
54270;BME280;40181;51.560;13.000;2022-11-13T05:11:09;101984.31;;;5.33;100.00
54270;BME280;40181;51.560;13.000;2022-11-13T05:13:38;101989.34;;;5.45;100.00
54270;BME280;40181;51.560;13.000;2022-11-13T05:16:10;101984.69;;;5.39;100.00
54270;BME280;40181;51.560;13.000;2022-11-13T05:18:40;101981.09;;;5.37;100.00
54270;BME280;40181;51.560;13.000;2022-11-13T05:21:10;101994.69;;;5.31;100.00
54270;BME280;40181;51.560;13.000;2022-11-13T05:23:39;101987.47;;;5.27;100.00
54270;BME280;40181;51.560;13.000;2022-11-13T05:26:12;101992.84;;;5.30;100.00
54270;BME280;40181;51.560;13.000;2022-11-13T05:28:41;101995.81;;;5.36;100.00
54270;BME280;40181;51.560;13.000;2022-11-13T05:31:14;101989.91;;;5.39;100.00
54270;BME280;40181;51.560;13.000;2022-11-13T05:33:44;101982.69;;;5.35;100.00
54270;BME280;40181;51.560;13.000;2022-11-13T05:36:15;101994.84;;;5.19;100.00
54270;BME280;40181;51.560;13.000;2022-11-13T05:38:45;101998.00;;;5.29;100.00
54270;BME280;40181;51.560;13.000;2022-11-13T05:41:18;101984.25;;;5.31;100.00
54270;BME280;40181;51.560;13.000;2022-11-13T05:43:49;101991.25;;;5.17;100.00
54270;BME280;40181;51.560;13.000;2022-11-13T05:46:21;101998.16;;;5.17;100.00
54270;BME280;40181;51.560;13.000;2022-11-13T05:48:53;101986.13;;;5.19;100.00
54270;BME280;40181;51.560;13.000;2022-11-13T05:51:25;101977.97;;;5.28;100.00
54270;BME280;40181;51.560;13.000;2022-11-13T05:53:57;101982.16;;;5.25;100.00
54270;BME280;40181;51.560;13.000;2022-11-13T05:56:31;101995.72;;;5.20;100.00
54270;BME280;40181;51.560;13.000;2022-11-13T05:59:03;101998.81;;;5.28;100.00
54270;BME280;40181;51.560;13.000;2022-11-13T06:01:33;101994.03;;;5.20;100.00
54270;BME280;40181;51.560;13.000;2022-11-13T06:04:05;101991.97;;;5.30;100.00
54270;BME280;40181;51.560;13.000;2022-11-13T06:06:35;101986.84;;;5.16;100.00
54270;BME280;40181;51.560;13.000;2022-11-13T06:09:05;101988.13;;;5.23;100.00
54270;BME280;40181;51.560;13.000;2022-11-13T06:11:37;101992.97;;;5.17;100.00
54270;BME280;40181;51.560;13.000;2022-11-13T06:14:07;101973.63;;;5.28;100.00
54270;BME280;40181;51.560;13.000;2022-11-13T06:16:37;101992.41;;;5.22;100.00
54270;BME280;40181;51.560;13.000;2022-11-13T06:19:08;101974.53;;;5.29;100.00
54270;BME280;40181;51.560;13.000;2022-11-13T06:21:39;101975.81;;;5.20;100.00
54270;BME280;40181;51.560;13.000;2022-11-13T06:24:11;101968.31;;;5.26;100.00
54270;BME280;40181;51.560;13.000;2022-11-13T06:26:43;101971.69;;;5.24;100.00
54270;BME280;40181;51.560;13.000;2022-11-13T06:29:12;101968.06;;;5.22;100.00
54270;BME280;40181;51.560;13.000;2022-11-13T06:31:42;101971.13;;;5.30;100.00
54270;BME280;40181;51.560;13.000;2022-11-13T06:34:11;101967.28;;;5.23;100.00
54270;BME280;40181;51.560;13.000;2022-11-13T06:36:41;101973.53;;;5.26;100.00
54270;BME280;40181;51.560;13.000;2022-11-13T06:39:10;101967.53;;;5.12;100.00
54270;BME280;40181;51.560;13.000;2022-11-13T06:41:40;101972.47;;;5.38;100.00
54270;BME280;40181;51.560;13.000;2022-11-13T06:44:12;101962.06;;;5.23;100.00
54270;BME280;40181;51.560;13.000;2022-11-13T06:46:41;101966.91;;;5.32;100.00
54270;BME280;40181;51.560;13.000;2022-11-13T06:49:10;101955.38;;;5.28;100.00
54270;BME280;40181;51.560;13.000;2022-11-13T06:51:40;101964.75;;;5.09;100.00
54270;BME280;40181;51.560;13.000;2022-11-13T06:54:09;101958.81;;;5.12;100.00
54270;BME280;40181;51.560;13.000;2022-11-13T06:56:39;101975.28;;;5.11;100.00
54270;BME280;40181;51.560;13.000;2022-11-13T06:59:12;101967.06;;;5.20;100.00
54270;BME280;40181;51.560;13.000;2022-11-13T07:01:41;101965.47;;;5.07;100.00
54270;BME280;40181;51.560;13.000;2022-11-13T07:04:11;101950.28;;;4.99;100.00
54270;BME280;40181;51.560;13.000;2022-11-13T07:06:41;101955.03;;;5.07;100.00
54270;BME280;40181;51.560;13.000;2022-11-13T07:09:10;101954.88;;;5.04;100.00
54270;BME280;40181;51.560;13.000;2022-11-13T07:11:39;101953.63;;;4.97;100.00
54270;BME280;40181;51.560;13.000;2022-11-13T07:14:12;101950.84;;;5.09;100.00
54270;BME280;40181;51.560;13.000;2022-11-13T07:16:43;101959.63;;;5.11;100.00
54270;BME280;40181;51.560;13.000;2022-11-13T07:19:12;101952.25;;;5.19;100.00
54270;BME280;40181;51.560;13.000;2022-11-13T07:21:41;101968.88;;;5.21;100.00
54270;BME280;40181;51.560;13.000;2022-11-13T07:24:11;101970.50;;;5.04;100.00
54270;BME280;40181;51.560;13.000;2022-11-13T07:26:40;101962.69;;;5.04;100.00
54270;BME280;40181;51.560;13.000;2022-11-13T07:29:13;101963.06;;;5.10;100.00
54270;BME280;40181;51.560;13.000;2022-11-13T07:31:43;101967.72;;;5.16;100.00
54270;BME280;40181;51.560;13.000;2022-11-13T07:34:13;101975.25;;;5.26;100.00
54270;BME280;40181;51.560;13.000;2022-11-13T07:36:42;101980.38;;;5.09;100.00
54270;BME280;40181;51.560;13.000;2022-11-13T07:39:11;101974.53;;;5.29;100.00
54270;BME280;40181;51.560;13.000;2022-11-13T07:41:41;101976.78;;;5.22;100.00
54270;BME280;40181;51.560;13.000;2022-11-13T07:44:13;101968.88;;;5.21;100.00
54270;BME280;40181;51.560;13.000;2022-11-13T07:46:43;101980.28;;;5.08;100.00
54270;BME280;40181;51.560;13.000;2022-11-13T07:49:12;101971.59;;;5.07;100.00
54270;BME280;40181;51.560;13.000;2022-11-13T07:51:42;101970.13;;;5.12;100.00
54270;BME280;40181;51.560;13.000;2022-11-13T07:54:11;101977.78;;;5.09;100.00
54270;BME280;40181;51.560;13.000;2022-11-13T07:56:40;101968.97;;;5.07;100.00
54270;BME280;40181;51.560;13.000;2022-11-13T07:59:14;101961.59;;;5.15;100.00
54270;BME280;40181;51.560;13.000;2022-11-13T08:01:43;101961.44;;;5.12;100.00
54270;BME280;40181;51.560;13.000;2022-11-13T08:04:13;101965.94;;;5.15;100.00
54270;BME280;40181;51.560;13.000;2022-11-13T08:06:42;101964.66;;;5.23;100.00
54270;BME280;40181;51.560;13.000;2022-11-13T08:09:11;101968.41;;;5.28;100.00
54270;BME280;40181;51.560;13.000;2022-11-13T08:11:41;101961.88;;;5.20;100.00
54270;BME280;40181;51.560;13.000;2022-11-13T08:14:10;101967.19;;;5.21;100.00
54270;BME280;40181;51.560;13.000;2022-11-13T08:16:43;101962.13;;;5.24;100.00
54270;BME280;40181;51.560;13.000;2022-11-13T08:19:12;101958.81;;;5.12;100.00
54270;BME280;40181;51.560;13.000;2022-11-13T08:21:41;101959.09;;;5.17;100.00
54270;BME280;40181;51.560;13.000;2022-11-13T08:24:11;101953.53;;;4.95;100.00
54270;BME280;40181;51.560;13.000;2022-11-13T08:26:41;101947.75;;;5.16;100.00
54270;BME280;40181;51.560;13.000;2022-11-13T08:29:13;101951.09;;;5.29;100.00
54270;BME280;40181;51.560;13.000;2022-11-13T08:31:42;101965.38;;;5.20;100.00
54270;BME280;40181;51.560;13.000;2022-11-13T08:34:12;101954.50;;;5.28;100.00
54270;BME280;40181;51.560;13.000;2022-11-13T08:36:41;101954.97;;;5.20;100.00
54270;BME280;40181;51.560;13.000;2022-11-13T08:39:11;101963.41;;;5.31;100.00
54270;BME280;40181;51.560;13.000;2022-11-13T08:41:40;101956.72;;;5.51;100.00
54270;BME280;40181;51.560;13.000;2022-11-13T08:44:10;101957.34;;;5.47;100.00
54270;BME280;40181;51.560;13.000;2022-11-13T08:46:42;101960.13;;;5.50;100.00
54270;BME280;40181;51.560;13.000;2022-11-13T08:49:12;101956.91;;;5.39;100.00
54270;BME280;40181;51.560;13.000;2022-11-13T08:51:41;101948.19;;;5.39;100.00
54270;BME280;40181;51.560;13.000;2022-11-13T08:54:10;101955.31;;;5.42;100.00
54270;BME280;40181;51.560;13.000;2022-11-13T08:56:40;101946.94;;;5.47;100.00
54270;BME280;40181;51.560;13.000;2022-11-13T08:59:09;101953.03;;;5.48;100.00
54270;BME280;40181;51.560;13.000;2022-11-13T09:01:41;101952.16;;;5.47;100.00
54270;BME280;40181;51.560;13.000;2022-11-13T09:04:10;101947.94;;;5.34;100.00
54270;BME280;40181;51.560;13.000;2022-11-13T09:06:40;101940.13;;;5.34;100.00
54270;BME280;40181;51.560;13.000;2022-11-13T09:09:09;101937.50;;;5.34;100.00
54270;BME280;40181;51.560;13.000;2022-11-13T09:11:39;101943.13;;;5.57;100.00
54270;BME280;40181;51.560;13.000;2022-11-13T09:14:08;101946.78;;;5.61;100.00
54270;BME280;40181;51.560;13.000;2022-11-13T09:16:41;101928.75;;;5.64;100.00
54270;BME280;40181;51.560;13.000;2022-11-13T09:19:10;101929.09;;;5.55;100.00
54270;BME280;40181;51.560;13.000;2022-11-13T09:21:39;101936.00;;;5.70;100.00
54270;BME280;40181;51.560;13.000;2022-11-13T09:24:11;101935.28;;;5.72;100.00
54270;BME280;40181;51.560;13.000;2022-11-13T09:26:40;101927.63;;;5.75;100.00
54270;BME280;40181;51.560;13.000;2022-11-13T09:29:11;101918.50;;;5.84;100.00
54270;BME280;40181;51.560;13.000;2022-11-13T09:31:42;101919.38;;;5.67;100.00
54270;BME280;40181;51.560;13.000;2022-11-13T09:34:12;101921.53;;;5.60;100.00
54270;BME280;40181;51.560;13.000;2022-11-13T09:36:41;101922.56;;;5.78;100.00
54270;BME280;40181;51.560;13.000;2022-11-13T09:39:10;101920.28;;;5.85;100.00
54270;BME280;40181;51.560;13.000;2022-11-13T09:41:43;101916.06;;;5.87;100.00
54270;BME280;40181;51.560;13.000;2022-11-13T09:44:17;101923.53;;;5.80;100.00
54270;BME280;40181;51.560;13.000;2022-11-13T09:46:56;101930.34;;;5.62;100.00
54270;BME280;40181;51.560;13.000;2022-11-13T09:49:34;101911.06;;;5.75;100.00
54270;BME280;40181;51.560;13.000;2022-11-13T09:52:13;101913.03;;;5.79;100.00
54270;BME280;40181;51.560;13.000;2022-11-13T09:54:44;101927.22;;;5.84;100.00
54270;BME280;40181;51.560;13.000;2022-11-13T09:57:23;101921.28;;;5.87;100.00
54270;BME280;40181;51.560;13.000;2022-11-13T10:00:00;101910.63;;;5.99;100.00
54270;BME280;40181;51.560;13.000;2022-11-13T10:02:44;101910.75;;;5.85;100.00
54270;BME280;40181;51.560;13.000;2022-11-13T10:05:24;101911.41;;;5.81;100.00
54270;BME280;40181;51.560;13.000;2022-11-13T10:08:04;101908.44;;;6.06;100.00
54270;BME280;40181;51.560;13.000;2022-11-13T10:10:47;101906.84;;;6.08;100.00
54270;BME280;40181;51.560;13.000;2022-11-13T10:13:22;101914.84;;;5.97;100.00
54270;BME280;40181;51.560;13.000;2022-11-13T10:16:05;101908.69;;;5.79;100.00
54270;BME280;40181;51.560;13.000;2022-11-13T10:18:47;101904.66;;;6.01;100.00
54270;BME280;40181;51.560;13.000;2022-11-13T10:21:28;101903.09;;;5.88;100.00
54270;BME280;40181;51.560;13.000;2022-11-13T10:24:02;101886.69;;;6.06;100.00
54270;BME280;40181;51.560;13.000;2022-11-13T10:26:36;101899.97;;;6.11;100.00
54270;BME280;40181;51.560;13.000;2022-11-13T10:29:10;101883.41;;;6.10;100.00
54270;BME280;40181;51.560;13.000;2022-11-13T10:31:42;101899.06;;;6.10;100.00
54270;BME280;40181;51.560;13.000;2022-11-13T10:34:15;101892.69;;;5.88;100.00
54270;BME280;40181;51.560;13.000;2022-11-13T10:36:57;101897.28;;;6.09;100.00
54270;BME280;40181;51.560;13.000;2022-11-13T10:39:41;101883.31;;;6.25;99.64
54270;BME280;40181;51.560;13.000;2022-11-13T10:42:20;101873.69;;;6.07;100.00
54270;BME280;40181;51.560;13.000;2022-11-13T10:44:52;101870.03;;;6.20;99.55
54270;BME280;40181;51.560;13.000;2022-11-13T10:47:24;101869.88;;;6.17;98.89
54270;BME280;40181;51.560;13.000;2022-11-13T10:50:08;101874.53;;;6.23;99.19
54270;BME280;40181;51.560;13.000;2022-11-13T10:52:44;101859.53;;;6.35;98.34
54270;BME280;40181;51.560;13.000;2022-11-13T10:55:21;101863.06;;;6.54;97.74
54270;BME280;40181;51.560;13.000;2022-11-13T10:57:55;101859.34;;;6.32;97.67
54270;BME280;40181;51.560;13.000;2022-11-13T11:00:29;101850.63;;;6.67;97.38
54270;BME280;40181;51.560;13.000;2022-11-13T11:03:00;101848.50;;;6.59;97.12
54270;BME280;40181;51.560;13.000;2022-11-13T11:05:33;101853.47;;;6.71;96.37
54270;BME280;40181;51.560;13.000;2022-11-13T11:08:07;101841.88;;;6.66;95.28
54270;BME280;40181;51.560;13.000;2022-11-13T11:10:38;101849.19;;;6.55;94.60
54270;BME280;40181;51.560;13.000;2022-11-13T11:13:28;101844.16;;;6.42;94.70
54270;BME280;40181;51.560;13.000;2022-11-13T11:16:00;101837.69;;;6.52;93.95
54270;BME280;40181;51.560;13.000;2022-11-13T11:18:34;101825.69;;;6.55;94.18
54270;BME280;40181;51.560;13.000;2022-11-13T11:21:11;101828.03;;;6.67;93.83
54270;BME280;40181;51.560;13.000;2022-11-13T11:23:47;101818.31;;;6.83;92.93
54270;BME280;40181;51.560;13.000;2022-11-13T11:26:21;101815.56;;;6.98;93.03
54270;BME280;40181;51.560;13.000;2022-11-13T11:29:02;101817.00;;;7.09;93.01
54270;BME280;40181;51.560;13.000;2022-11-13T11:31:40;101815.59;;;7.54;91.90
54270;BME280;40181;51.560;13.000;2022-11-13T11:34:16;101807.66;;;7.72;89.64
54270;BME280;40181;51.560;13.000;2022-11-13T11:37:04;101801.88;;;7.99;89.15
54270;BME280;40181;51.560;13.000;2022-11-13T11:39:42;101790.97;;;8.29;88.41
54270;BME280;40181;51.560;13.000;2022-11-13T11:42:21;101788.19;;;8.67;87.08
54270;BME280;40181;51.560;13.000;2022-11-13T11:45:04;101777.03;;;8.72;84.28
54270;BME280;40181;51.560;13.000;2022-11-13T11:47:38;101774.75;;;8.80;83.58
54270;BME280;40181;51.560;13.000;2022-11-13T11:50:12;101775.41;;;8.75;83.10
54270;BME280;40181;51.560;13.000;2022-11-13T11:52:55;101777.22;;;8.77;82.67
54270;BME280;40181;51.560;13.000;2022-11-13T11:55:45;101764.66;;;8.90;81.89
54270;BME280;40181;51.560;13.000;2022-11-13T11:58:50;101776.66;;;9.30;80.23
54270;BME280;40181;51.560;13.000;2022-11-13T12:01:49;101756.09;;;9.41;79.96
54270;BME280;40181;51.560;13.000;2022-11-13T12:04:49;101767.28;;;9.60;79.38
54270;BME280;40181;51.560;13.000;2022-11-13T12:07:32;101758.03;;;9.69;78.22
54270;BME280;40181;51.560;13.000;2022-11-13T12:10:23;101751.28;;;10.02;77.73
54270;BME280;40181;51.560;13.000;2022-11-13T12:13:17;101755.09;;;10.10;75.30
54270;BME280;40181;51.560;13.000;2022-11-13T12:15:59;101742.50;;;10.28;75.84
54270;BME280;40181;51.560;13.000;2022-11-13T12:18:41;101738.78;;;9.95;75.14
54270;BME280;40181;51.560;13.000;2022-11-13T12:21:21;101745.50;;;10.38;74.77
54270;BME280;40181;51.560;13.000;2022-11-13T12:24:02;101737.63;;;10.38;73.53
54270;BME280;40181;51.560;13.000;2022-11-13T12:26:55;101739.84;;;10.52;73.77
54270;BME280;40181;51.560;13.000;2022-11-13T12:29:50;101720.03;;;10.62;74.19
54270;BME280;40181;51.560;13.000;2022-11-13T12:32:49;101730.28;;;10.54;73.51
54270;BME280;40181;51.560;13.000;2022-11-13T12:35:38;101717.47;;;10.37;74.52
54270;BME280;40181;51.560;13.000;2022-11-13T12:38:15;101711.00;;;10.28;75.03
54270;BME280;40181;51.560;13.000;2022-11-13T12:40:57;101708.88;;;10.42;73.66
54270;BME280;40181;51.560;13.000;2022-11-13T12:46:20;101704.50;;;10.42;74.07
54270;BME280;40181;51.560;13.000;2022-11-13T12:48:50;101703.56;;;10.68;73.05
54270;BME280;40181;51.560;13.000;2022-11-13T12:51:19;101706.56;;;10.80;73.50
54270;BME280;40181;51.560;13.000;2022-11-13T12:53:51;101708.97;;;10.19;73.89
54270;BME280;40181;51.560;13.000;2022-11-13T12:56:30;101700.84;;;10.38;74.17
54270;BME280;40181;51.560;13.000;2022-11-13T12:59:10;101698.50;;;10.74;72.73
54270;BME280;40181;51.560;13.000;2022-11-13T13:02:01;101687.56;;;10.89;73.91
54270;BME280;40181;51.560;13.000;2022-11-13T13:05:03;101685.28;;;10.72;73.48
54270;BME280;40181;51.560;13.000;2022-11-13T13:07:53;101680.69;;;10.65;73.82
54270;BME280;40181;51.560;13.000;2022-11-13T13:11:13;101681.66;;;10.67;74.14
54270;BME280;40181;51.560;13.000;2022-11-13T13:13:51;101674.84;;;10.45;74.54
54270;BME280;40181;51.560;13.000;2022-11-13T13:16:29;101667.91;;;10.48;74.91